Time;durP1;ratioP1;P1;durP2;ratioP2;P2;SDS_P1;SDS_P2;PMS_P1;PMS_P2;Temp;Humidity;BMP_temperature;BMP_pressure;BME280_temperature;BME280_humidity;BME280_pressure;Samples;Min_cycle;Max_cycle;Signal;HPM_P1;HPM_P2
2021/09/15 06:55:24;;;;;;;123.10;84.40;;;17.60;99.90;;;;;;5121457;27;20726;-75
2021/09/15 06:57:50;;;;;;;117.63;85.10;;;17.60;99.80;;;;;;5127414;27;20122;-72
2021/09/15 07:00:18;;;;;;;114.23;82.57;;;17.60;99.90;;;;;;5125884;28;20506;-72
2021/09/15 07:02:44;;;;;;;106.40;79.63;;;17.60;99.90;;;;;;5126877;27;20576;-74
2021/09/15 07:05:10;;;;;;;106.90;80.80;;;17.70;99.90;;;;;;5126910;27;20495;-73
2021/09/15 07:07:36;;;;;;;108.70;80.33;;;17.80;99.90;;;;;;5124916;28;20066;-73
2021/09/15 07:10:03;;;;;;;104.40;81.93;;;17.80;99.90;;;;;;5126861;27;20087;-74
2021/09/15 07:12:29;;;;;;;101.90;77.40;;;17.90;99.90;;;;;;5125965;28;20051;-75
2021/09/15 07:14:54;;;;;;;91.23;74.07;;;17.90;99.90;;;;;;5125002;28;20047;-73
2021/09/15 07:17:20;;;;;;;97.93;77.27;;;18.00;99.90;;;;;;5126762;27;20047;-73
2021/09/15 07:19:45;;;;;;;97.20;75.93;;;18.00;99.90;;;;;;5125882;27;20059;-74
2021/09/15 07:22:11;;;;;;;95.40;75.20;;;18.10;99.90;;;;;;5126729;27;20038;-75
2021/09/15 07:24:36;;;;;;;87.67;70.90;;;18.20;99.90;;;;;;5126166;28;20047;-75
2021/09/15 07:27:02;;;;;;;84.60;68.93;;;18.20;99.90;;;;;;5125902;27;20094;-76
2021/09/15 07:29:28;;;;;;;91.77;72.40;;;18.30;99.90;;;;;;5125307;28;20047;-75
2021/09/15 07:31:53;;;;;;;88.23;68.53;;;18.30;99.90;;;;;;5125394;28;20067;-75
2021/09/15 07:34:19;;;;;;;75.00;62.77;;;18.40;99.90;;;;;;5124679;28;20071;-78
2021/09/15 07:36:44;;;;;;;90.03;69.97;;;18.40;99.90;;;;;;5125213;28;20092;-73
2021/09/15 07:39:11;;;;;;;77.70;63.43;;;18.50;99.90;;;;;;5126151;28;20086;-73
2021/09/15 07:41:37;;;;;;;74.17;61.93;;;18.50;99.90;;;;;;5125793;27;20035;-73
2021/09/15 07:44:03;;;;;;;80.60;64.13;;;18.60;99.90;;;;;;5125734;28;20122;-77
2021/09/15 07:46:28;;;;;;;76.17;61.30;;;18.60;99.90;;;;;;5126559;28;20479;-76
2021/09/15 07:48:54;;;;;;;82.07;65.60;;;18.60;99.90;;;;;;5124801;28;20122;-76
2021/09/15 07:51:20;;;;;;;87.37;64.53;;;18.60;99.90;;;;;;5126862;27;20517;-76
2021/09/15 07:53:46;;;;;;;80.57;62.67;;;18.60;99.90;;;;;;5124841;28;20051;-75
2021/09/15 07:56:12;;;;;;;88.77;64.60;;;18.60;99.90;;;;;;5125685;27;20040;-75
2021/09/15 07:58:38;;;;;;;87.10;64.17;;;18.60;99.90;;;;;;5126640;27;20460;-75
2021/09/15 08:01:03;;;;;;;84.17;61.47;;;18.60;99.90;;;;;;5125202;28;20053;-78
2021/09/15 08:03:29;;;;;;;85.60;63.40;;;18.70;99.90;;;;;;5124084;28;20043;-75
2021/09/15 08:05:57;;;;;;;87.97;65.77;;;18.70;99.90;;;;;;5115482;28;20499;-76
2021/09/15 08:08:23;;;;;;;92.30;64.63;;;18.70;99.90;;;;;;5110892;28;20493;-76
2021/09/15 08:10:48;;;;;;;91.97;67.17;;;18.70;99.90;;;;;;5103635;28;20196;-70
2021/09/15 08:13:14;;;;;;;102.43;68.13;;;18.80;99.90;;;;;;5111344;28;20139;-70
2021/09/15 08:15:39;;;;;;;93.23;64.73;;;18.70;99.90;;;;;;5111395;28;20400;-70
2021/09/15 08:18:05;;;;;;;96.03;66.87;;;18.70;99.90;;;;;;5092417;28;20348;-70
2021/09/15 08:20:30;;;;;;;95.17;64.43;;;18.80;99.90;;;;;;5111310;28;20448;-70
2021/09/15 08:22:56;;;;;;;88.40;62.03;;;18.80;99.90;;;;;;5111470;28;20036;-70
2021/09/15 08:25:22;;;;;;;103.40;69.27;;;18.80;99.90;;;;;;5092647;28;20047;-70
2021/09/15 08:27:48;;;;;;;103.03;68.10;;;18.80;99.90;;;;;;5111229;28;20172;-69
2021/09/15 08:30:14;;;;;;;98.50;68.50;;;19.00;99.90;;;;;;5093045;28;20123;-70
2021/09/15 08:32:40;;;;;;;94.67;68.67;;;19.00;99.90;;;;;;5111327;28;20048;-71
2021/09/15 08:35:06;;;;;;;94.17;67.93;;;19.10;99.90;;;;;;5093182;28;20050;-70
2021/09/15 08:37:36;;;;;;;98.87;67.77;;;19.10;99.90;;;;;;5110797;28;20062;-70
2021/09/15 08:40:04;;;;;;;92.43;64.70;;;19.10;99.90;;;;;;5110932;28;20051;-70
2021/09/15 09:26:20;;;;;;;93.70;66.60;;;19.60;99.90;;;;;;5080838;27;20356;-75
2021/09/15 09:28:46;;;;;;;89.93;67.30;;;19.70;99.50;;;;;;5065651;28;20553;-74
2021/09/15 09:31:11;;;;;;;90.03;67.53;;;19.70;99.90;;;;;;5066540;28;20497;-78
2021/09/15 09:33:37;;;;;;;83.50;63.37;;;19.70;99.90;;;;;;5047832;28;20044;-75
2021/09/15 09:36:07;;;;;;;83.33;63.60;;;19.80;99.90;;;;;;5048159;28;20072;-76
2021/09/15 09:38:46;;;;;;;80.23;61.73;;;19.80;99.90;;;;;;5048319;28;20611;-77
2021/09/15 09:41:20;;;;;;;79.87;62.13;;;19.90;99.90;;;;;;5064678;28;20056;-79
2021/09/15 09:43:53;;;;;;;73.47;56.23;;;20.00;99.90;;;;;;5047909;28;20045;-78
2021/09/15 09:46:27;;;;;;;65.20;52.63;;;20.10;99.90;;;;;;5048307;28;20102;-77
2021/09/15 09:48:55;;;;;;;67.30;55.53;;;20.10;99.90;;;;;;5065417;28;20044;-76
2021/09/15 09:51:41;;;;;;;61.70;53.10;;;20.10;99.90;;;;;;5065896;28;20059;-77
2021/09/15 09:54:08;;;;;;;64.13;53.40;;;20.20;99.90;;;;;;5053536;28;20371;-77
2021/09/15 09:56:35;;;;;;;64.77;53.83;;;20.20;99.90;;;;;;5067137;28;20052;-76
2021/09/15 09:59:03;;;;;;;68.67;55.70;;;20.20;99.90;;;;;;5085544;28;20436;-77
2021/09/15 10:01:31;;;;;;;68.33;53.93;;;20.20;99.90;;;;;;5069986;28;20046;-73
2021/09/15 10:03:59;;;;;;;60.80;49.47;;;20.20;99.90;;;;;;5047122;28;20102;-73
2021/09/15 10:06:25;;;;;;;57.53;50.47;;;20.20;99.90;;;;;;5047757;28;20053;-73
2021/09/15 10:08:52;;;;;;;56.95;48.35;;;20.20;99.90;;;;;;5064297;28;20830;-76
2021/09/15 10:11:17;;;;;;;55.53;49.47;;;20.20;99.70;;;;;;5065418;28;20140;-73
2021/09/15 10:13:43;;;;;;;57.58;48.25;;;20.20;99.60;;;;;;5064456;28;20135;-72
2021/09/15 10:16:11;;;;;;;52.67;47.15;;;20.20;99.60;;;;;;5046879;28;20055;-76
2021/09/15 10:18:37;;;;;;;51.55;46.00;;;20.30;99.60;;;;;;5065109;28;20057;-73
2021/09/15 10:21:05;;;;;;;49.78;43.92;;;20.30;99.60;;;;;;5064902;28;20292;-74
2021/09/15 10:23:48;;;;;;;49.35;44.05;;;20.30;99.20;;;;;;5064502;28;20101;-74
2021/09/15 10:26:41;;;;;;;45.95;41.10;;;20.30;99.00;;;;;;5064852;28;20135;-74
2021/09/15 10:29:20;;;;;;;44.63;39.87;;;20.40;98.90;;;;;;5065054;28;20094;-73
2021/09/15 11:25:25;;;;;;;59.87;47.23;;;20.30;96.30;;;;;;5100965;27;20756;-73
2021/09/15 11:28:11;;;;;;;59.37;46.03;;;20.10;96.70;;;;;;5103802;28;20135;-69
2021/09/15 11:30:51;;;;;;;54.13;44.17;;;20.10;97.10;;;;;;5105378;28;20062;-72
2021/09/15 11:33:28;;;;;;;56.43;44.70;;;20.00;97.50;;;;;;5105034;28;20098;-73
2021/09/15 11:35:59;;;;;;;53.77;44.67;;;20.00;97.50;;;;;;5105163;28;20048;-74
2021/09/15 11:38:26;;;;;;;50.43;43.23;;;20.00;97.70;;;;;;5106383;28;20040;-74
2021/09/15 11:40:52;;;;;;;54.17;42.90;;;20.00;97.70;;;;;;5104553;28;20052;-72
2021/09/15 11:43:20;;;;;;;54.20;43.10;;;20.10;97.80;;;;;;5105035;28;20344;-72
2021/09/15 11:45:47;;;;;;;53.57;43.03;;;20.20;97.80;;;;;;5105284;28;20071;-72
2021/09/15 11:48:25;;;;;;;48.13;39.60;;;20.40;97.80;;;;;;5105672;28;20047;-72
2021/09/15 11:50:50;;;;;;;47.50;40.72;;;20.60;97.50;;;;;;5106175;28;20048;-72
2021/09/15 11:53:16;;;;;;;47.97;39.75;;;20.80;96.90;;;;;;5105267;28;20056;-72
2021/09/15 11:55:48;;;;;;;51.05;40.70;;;21.00;96.60;;;;;;5104160;28;20103;-73
2021/09/15 11:58:14;;;;;;;46.83;38.30;;;21.20;96.30;;;;;;5106832;28;20051;-71
2021/09/15 12:00:41;;;;;;;45.65;40.30;;;21.30;95.90;;;;;;5106396;28;20036;-75
2021/09/15 12:03:09;;;;;;;46.95;40.38;;;21.40;95.60;;;;;;5105725;28;20070;-72
2021/09/15 12:05:36;;;;;;;50.65;40.95;;;21.30;95.50;;;;;;5106088;28;20059;-70
2021/09/15 12:08:04;;;;;;;48.25;40.58;;;21.30;95.40;;;;;;5106066;28;20043;-71
2021/09/15 12:10:31;;;;;;;49.33;42.03;;;21.30;95.30;;;;;;5105815;28;20040;-70
2021/09/15 12:12:58;;;;;;;46.08;39.33;;;21.30;95.30;;;;;;5105842;28;20050;-71
2021/09/15 12:15:24;;;;;;;46.13;39.65;;;21.40;95.30;;;;;;5104028;28;20079;-71
2021/09/15 12:17:58;;;;;;;41.80;36.47;;;21.50;95.10;;;;;;5104757;28;20079;-70
2021/09/15 12:20:42;;;;;;;44.30;36.83;;;21.60;94.70;;;;;;5104408;28;20036;-69
2021/09/15 12:23:09;;;;;;;37.25;33.00;;;21.70;94.70;;;;;;5103390;28;20075;-70
2021/09/15 12:25:35;;;;;;;35.03;30.83;;;21.90;94.20;;;;;;5104356;28;20465;-70
2021/09/15 12:28:00;;;;;;;39.25;29.02;;;22.00;93.80;;;;;;5105064;28;20054;-70
2021/09/15 12:30:26;;;;;;;32.00;28.02;;;22.20;93.20;;;;;;5103762;28;20411;-69
2021/09/15 18:06:54;;;;;;;6.40;2.77;;;17.70;93.50;;;;;;5099482;27;20391;-75
2021/09/15 18:09:20;;;;;;;6.03;2.37;;;17.70;93.50;;;;;;5086956;28;20143;-77
2021/09/15 18:11:48;;;;;;;6.03;2.30;;;17.70;94.10;;;;;;5087444;28;20076;-74
2021/09/15 18:14:14;;;;;;;5.43;2.60;;;17.60;94.50;;;;;;5086669;28;20040;-74
2021/09/15 18:16:39;;;;;;;6.40;2.57;;;17.70;94.80;;;;;;5105222;28;20117;-76
2021/09/15 18:19:05;;;;;;;13.43;2.57;;;17.70;95.00;;;;;;5087318;28;20065;-75
2021/09/15 18:21:34;;;;;;;5.30;2.23;;;17.70;95.10;;;;;;5086631;28;20514;-70
2021/09/15 18:24:00;;;;;;;7.67;2.60;;;17.70;95.20;;;;;;5087075;28;20427;-71
2021/09/15 18:26:25;;;;;;;7.27;2.50;;;17.70;95.30;;;;;;5087313;28;20121;-75
2021/09/15 18:28:51;;;;;;;10.97;2.37;;;17.70;95.20;;;;;;5086312;28;20051;-76
2021/09/15 18:31:16;;;;;;;8.67;2.00;;;17.70;95.10;;;;;;5105549;28;20036;-77
2021/09/15 18:33:42;;;;;;;11.13;2.43;;;17.70;95.10;;;;;;5086796;28;20123;-75
2021/09/15 18:36:08;;;;;;;8.03;2.73;;;17.70;95.20;;;;;;5104373;28;20044;-70
2021/09/15 18:38:34;;;;;;;6.13;2.10;;;17.70;95.60;;;;;;5105131;28;20078;-69
2021/09/15 18:41:00;;;;;;;8.83;2.13;;;17.60;95.10;;;;;;5104685;28;20040;-70
2021/09/15 18:43:26;;;;;;;7.00;2.27;;;17.70;95.10;;;;;;5104317;28;20051;-71
2021/09/15 18:45:51;;;;;;;5.43;2.07;;;17.60;95.10;;;;;;5104636;28;20051;-77
2021/09/15 18:48:19;;;;;;;5.47;2.23;;;17.60;95.10;;;;;;5104952;28;20040;-73
2021/09/15 18:50:50;;;;;;;8.37;2.20;;;17.60;95.00;;;;;;5103672;28;20051;-72
2021/09/15 18:53:15;;;;;;;5.60;1.88;;;17.60;95.00;;;;;;5104705;28;20040;-72
2021/09/15 18:55:42;;;;;;;6.43;1.87;;;17.50;95.10;;;;;;5086446;28;20220;-72
2021/09/15 18:58:09;;;;;;;6.87;1.77;;;17.50;95.10;;;;;;5103871;28;20412;-71
2021/09/15 19:00:34;;;;;;;7.97;1.83;;;17.50;95.00;;;;;;5086589;28;20496;-70
